sensor_id;sensor_type;location;lat;lon;timestamp;temperature;humidity
2409;DHT22;8463;48.094;7.970;2022-07-06T00:01:19;19.50;20.20
2409;DHT22;8463;48.094;7.970;2022-07-06T00:03:45;19.50;20.20
2409;DHT22;8463;48.094;7.970;2022-07-06T00:06:11;19.50;20.10
2409;DHT22;8463;48.094;7.970;2022-07-06T00:08:38;19.50;20.30
2409;DHT22;8463;48.094;7.970;2022-07-06T00:11:04;19.50;20.30
2409;DHT22;8463;48.094;7.970;2022-07-06T00:13:30;19.50;20.30
2409;DHT22;8463;48.094;7.970;2022-07-06T00:15:55;19.50;20.30
2409;DHT22;8463;48.094;7.970;2022-07-06T00:18:21;19.60;20.40
2409;DHT22;8463;48.094;7.970;2022-07-06T00:20:47;19.60;20.50
2409;DHT22;8463;48.094;7.970;2022-07-06T00:23:12;19.60;20.30
2409;DHT22;8463;48.094;7.970;2022-07-06T00:25:38;19.50;20.20
2409;DHT22;8463;48.094;7.970;2022-07-06T00:28:03;19.40;20.30
2409;DHT22;8463;48.094;7.970;2022-07-06T00:30:29;19.30;20.80
2409;DHT22;8463;48.094;7.970;2022-07-06T00:32:55;19.20;20.80
2409;DHT22;8463;48.094;7.970;2022-07-06T00:35:21;19.20;20.80
2409;DHT22;8463;48.094;7.970;2022-07-06T00:37:46;19.20;21.10
2409;DHT22;8463;48.094;7.970;2022-07-06T00:40:12;19.10;21.10
2409;DHT22;8463;48.094;7.970;2022-07-06T00:42:42;19.10;21.10
2409;DHT22;8463;48.094;7.970;2022-07-06T00:45:09;19.10;21.10
2409;DHT22;8463;48.094;7.970;2022-07-06T00:47:35;19.10;21.10
2409;DHT22;8463;48.094;7.970;2022-07-06T00:50:01;19.10;21.10
2409;DHT22;8463;48.094;7.970;2022-07-06T00:52:40;19.00;21.10
2409;DHT22;8463;48.094;7.970;2022-07-06T00:55:06;19.00;21.00
2409;DHT22;8463;48.094;7.970;2022-07-06T00:57:32;18.90;20.90
2409;DHT22;8463;48.094;7.970;2022-07-06T00:59:58;18.90;20.90
2409;DHT22;8463;48.094;7.970;2022-07-06T01:02:24;18.90;20.90
2409;DHT22;8463;48.094;7.970;2022-07-06T01:04:49;19.00;21.00
2409;DHT22;8463;48.094;7.970;2022-07-06T01:07:16;18.90;20.90
2409;DHT22;8463;48.094;7.970;2022-07-06T01:09:42;18.80;21.30
2409;DHT22;8463;48.094;7.970;2022-07-06T01:12:08;18.70;21.40
2409;DHT22;8463;48.094;7.970;2022-07-06T01:14:34;18.70;21.60
2409;DHT22;8463;48.094;7.970;2022-07-06T01:17:01;18.70;21.60
2409;DHT22;8463;48.094;7.970;2022-07-06T01:19:26;18.70;21.40
2409;DHT22;8463;48.094;7.970;2022-07-06T01:21:52;18.60;21.50
2409;DHT22;8463;48.094;7.970;2022-07-06T01:24:18;18.50;21.50
2409;DHT22;8463;48.094;7.970;2022-07-06T01:26:44;18.50;22.10
2409;DHT22;8463;48.094;7.970;2022-07-06T01:29:10;18.40;21.90
2409;DHT22;8463;48.094;7.970;2022-07-06T01:31:41;18.40;22.10
2409;DHT22;8463;48.094;7.970;2022-07-06T01:34:11;18.40;22.30
2409;DHT22;8463;48.094;7.970;2022-07-06T01:36:37;18.50;22.00
2409;DHT22;8463;48.094;7.970;2022-07-06T01:39:02;18.40;21.90
2409;DHT22;8463;48.094;7.970;2022-07-06T01:41:28;18.50;21.90
2409;DHT22;8463;48.094;7.970;2022-07-06T01:43:54;18.50;22.00
2409;DHT22;8463;48.094;7.970;2022-07-06T01:46:19;18.40;22.20
2409;DHT22;8463;48.094;7.970;2022-07-06T01:48:45;18.40;21.80
2409;DHT22;8463;48.094;7.970;2022-07-06T01:51:11;18.50;22.00
2409;DHT22;8463;48.094;7.970;2022-07-06T01:53:37;18.40;22.20
2409;DHT22;8463;48.094;7.970;2022-07-06T01:56:03;18.40;22.10
2409;DHT22;8463;48.094;7.970;2022-07-06T01:58:29;18.40;21.90
2409;DHT22;8463;48.094;7.970;2022-07-06T02:00:54;18.50;21.80
2409;DHT22;8463;48.094;7.970;2022-07-06T02:03:20;18.40;21.90
2409;DHT22;8463;48.094;7.970;2022-07-06T02:05:46;18.40;21.90
2409;DHT22;8463;48.094;7.970;2022-07-06T02:08:11;18.30;21.90
2409;DHT22;8463;48.094;7.970;2022-07-06T02:10:37;18.30;21.90
2409;DHT22;8463;48.094;7.970;2022-07-06T02:13:03;18.20;22.30
2409;DHT22;8463;48.094;7.970;2022-07-06T02:15:28;18.20;22.40
2409;DHT22;8463;48.094;7.970;2022-07-06T02:17:54;18.10;22.40
2409;DHT22;8463;48.094;7.970;2022-07-06T02:20:19;18.10;22.40
2409;DHT22;8463;48.094;7.970;2022-07-06T02:22:45;18.00;22.60
2409;DHT22;8463;48.094;7.970;2022-07-06T02:25:11;18.00;22.80
2409;DHT22;8463;48.094;7.970;2022-07-06T02:27:36;17.90;23.00
2409;DHT22;8463;48.094;7.970;2022-07-06T02:30:02;17.90;23.30
2409;DHT22;8463;48.094;7.970;2022-07-06T02:32:28;17.80;23.50
2409;DHT22;8463;48.094;7.970;2022-07-06T02:34:53;17.70;23.40
2409;DHT22;8463;48.094;7.970;2022-07-06T02:37:19;17.70;23.90
2409;DHT22;8463;48.094;7.970;2022-07-06T02:39:45;17.70;23.90
2409;DHT22;8463;48.094;7.970;2022-07-06T02:42:10;17.80;23.10
2409;DHT22;8463;48.094;7.970;2022-07-06T02:44:36;17.80;23.00
2409;DHT22;8463;48.094;7.970;2022-07-06T02:47:02;17.80;22.60
2409;DHT22;8463;48.094;7.970;2022-07-06T02:49:27;17.70;21.90
2409;DHT22;8463;48.094;7.970;2022-07-06T02:51:53;17.70;22.60
2409;DHT22;8463;48.094;7.970;2022-07-06T02:54:19;17.70;22.60
2409;DHT22;8463;48.094;7.970;2022-07-06T02:56:44;17.70;22.40
2409;DHT22;8463;48.094;7.970;2022-07-06T02:59:13;17.60;22.80
2409;DHT22;8463;48.094;7.970;2022-07-06T03:01:39;17.70;22.60
2409;DHT22;8463;48.094;7.970;2022-07-06T03:04:04;17.60;22.50
2409;DHT22;8463;48.094;7.970;2022-07-06T03:06:31;17.60;22.50
2409;DHT22;8463;48.094;7.970;2022-07-06T03:08:56;17.50;23.30
2409;DHT22;8463;48.094;7.970;2022-07-06T03:11:22;17.50;23.10
2409;DHT22;8463;48.094;7.970;2022-07-06T03:13:47;17.40;22.70
2409;DHT22;8463;48.094;7.970;2022-07-06T03:16:13;17.40;23.10
2409;DHT22;8463;48.094;7.970;2022-07-06T03:18:38;17.40;23.40
2409;DHT22;8463;48.094;7.970;2022-07-06T03:21:04;17.20;23.40
2409;DHT22;8463;48.094;7.970;2022-07-06T03:23:30;17.20;23.50
2409;DHT22;8463;48.094;7.970;2022-07-06T03:25:56;17.20;23.50
2409;DHT22;8463;48.094;7.970;2022-07-06T03:28:22;17.20;23.60
2409;DHT22;8463;48.094;7.970;2022-07-06T03:30:47;17.20;23.90
2409;DHT22;8463;48.094;7.970;2022-07-06T03:33:13;17.20;23.50
2409;DHT22;8463;48.094;7.970;2022-07-06T03:35:39;17.20;23.50
2409;DHT22;8463;48.094;7.970;2022-07-06T03:38:04;17.20;23.20
2409;DHT22;8463;48.094;7.970;2022-07-06T03:40:30;17.10;23.40
2409;DHT22;8463;48.094;7.970;2022-07-06T03:42:56;17.00;23.40
2409;DHT22;8463;48.094;7.970;2022-07-06T03:45:21;17.00;23.40
2409;DHT22;8463;48.094;7.970;2022-07-06T03:47:47;16.90;24.00
2409;DHT22;8463;48.094;7.970;2022-07-06T03:50:12;16.90;23.90
2409;DHT22;8463;48.094;7.970;2022-07-06T03:52:38;16.90;24.10
2409;DHT22;8463;48.094;7.970;2022-07-06T03:55:08;17.00;24.30
2409;DHT22;8463;48.094;7.970;2022-07-06T03:57:34;16.90;24.00
2409;DHT22;8463;48.094;7.970;2022-07-06T04:00:00;16.90;24.10
2409;DHT22;8463;48.094;7.970;2022-07-06T04:02:25;16.90;23.90
2409;DHT22;8463;48.094;7.970;2022-07-06T04:04:51;16.90;24.40
2409;DHT22;8463;48.094;7.970;2022-07-06T04:07:16;16.90;24.00
2409;DHT22;8463;48.094;7.970;2022-07-06T04:09:42;17.00;23.90
2409;DHT22;8463;48.094;7.970;2022-07-06T04:12:08;17.00;23.60
2409;DHT22;8463;48.094;7.970;2022-07-06T04:14:33;17.10;23.40
2409;DHT22;8463;48.094;7.970;2022-07-06T04:17:00;17.10;23.50
2409;DHT22;8463;48.094;7.970;2022-07-06T04:19:45;17.10;23.50
2409;DHT22;8463;48.094;7.970;2022-07-06T04:22:11;17.10;23.50
2409;DHT22;8463;48.094;7.970;2022-07-06T04:24:37;17.10;23.40
2409;DHT22;8463;48.094;7.970;2022-07-06T04:27:03;17.10;24.00
2409;DHT22;8463;48.094;7.970;2022-07-06T04:29:28;17.20;24.10
2409;DHT22;8463;48.094;7.970;2022-07-06T04:31:54;17.30;23.60
2409;DHT22;8463;48.094;7.970;2022-07-06T04:34:20;17.30;23.60
2409;DHT22;8463;48.094;7.970;2022-07-06T04:36:46;17.40;23.00
2409;DHT22;8463;48.094;7.970;2022-07-06T04:39:11;17.40;22.90
2409;DHT22;8463;48.094;7.970;2022-07-06T04:41:37;17.50;22.60
2409;DHT22;8463;48.094;7.970;2022-07-06T04:44:03;17.90;31.90
2409;DHT22;8463;48.094;7.970;2022-07-06T04:46:29;18.20;27.90
2409;DHT22;8463;48.094;7.970;2022-07-06T04:48:54;18.50;28.20
2409;DHT22;8463;48.094;7.970;2022-07-06T04:51:20;18.70;26.20
2409;DHT22;8463;48.094;7.970;2022-07-06T04:53:45;18.80;25.50
2409;DHT22;8463;48.094;7.970;2022-07-06T04:56:12;19.00;24.80
2409;DHT22;8463;48.094;7.970;2022-07-06T04:58:37;19.20;23.90
2409;DHT22;8463;48.094;7.970;2022-07-06T05:01:03;19.40;22.70
2409;DHT22;8463;48.094;7.970;2022-07-06T05:03:29;19.60;21.60
2409;DHT22;8463;48.094;7.970;2022-07-06T05:05:55;19.80;21.00
2409;DHT22;8463;48.094;7.970;2022-07-06T05:08:20;19.90;20.10
2409;DHT22;8463;48.094;7.970;2022-07-06T05:10:48;20.10;19.60
2409;DHT22;8463;48.094;7.970;2022-07-06T05:13:13;20.20;18.90
2409;DHT22;8463;48.094;7.970;2022-07-06T05:15:39;20.30;18.50
2409;DHT22;8463;48.094;7.970;2022-07-06T05:18:05;20.50;18.20
2409;DHT22;8463;48.094;7.970;2022-07-06T05:20:30;20.50;16.60
2409;DHT22;8463;48.094;7.970;2022-07-06T05:22:56;20.50;17.30
2409;DHT22;8463;48.094;7.970;2022-07-06T05:25:22;20.50;17.80
2409;DHT22;8463;48.094;7.970;2022-07-06T05:27:47;20.60;17.60
2409;DHT22;8463;48.094;7.970;2022-07-06T05:30:13;20.60;16.90
2409;DHT22;8463;48.094;7.970;2022-07-06T05:32:41;20.60;17.20
2409;DHT22;8463;48.094;7.970;2022-07-06T05:35:07;20.60;15.90
2409;DHT22;8463;48.094;7.970;2022-07-06T05:37:33;20.60;17.90
2409;DHT22;8463;48.094;7.970;2022-07-06T05:39:59;20.60;17.80
2409;DHT22;8463;48.094;7.970;2022-07-06T05:42:24;20.80;17.60
2409;DHT22;8463;48.094;7.970;2022-07-06T05:44:50;20.80;14.80
2409;DHT22;8463;48.094;7.970;2022-07-06T05:47:15;20.60;15.00
2409;DHT22;8463;48.094;7.970;2022-07-06T05:49:59;20.50;16.10
2409;DHT22;8463;48.094;7.970;2022-07-06T05:52:38;20.40;15.50
2409;DHT22;8463;48.094;7.970;2022-07-06T05:55:04;20.20;16.10
2409;DHT22;8463;48.094;7.970;2022-07-06T05:57:29;19.90;15.20
2409;DHT22;8463;48.094;7.970;2022-07-06T05:59:55;19.50;16.70
2409;DHT22;8463;48.094;7.970;2022-07-06T06:02:21;19.30;17.30
2409;DHT22;8463;48.094;7.970;2022-07-06T06:04:46;19.20;18.00
2409;DHT22;8463;48.094;7.970;2022-07-06T06:07:12;19.30;18.00
2409;DHT22;8463;48.094;7.970;2022-07-06T06:09:38;19.30;16.90
2409;DHT22;8463;48.094;7.970;2022-07-06T06:12:03;19.40;16.80
2409;DHT22;8463;48.094;7.970;2022-07-06T06:14:29;19.60;17.50
2409;DHT22;8463;48.094;7.970;2022-07-06T06:16:55;19.70;17.00
2409;DHT22;8463;48.094;7.970;2022-07-06T06:19:21;19.90;16.70
2409;DHT22;8463;48.094;7.970;2022-07-06T06:21:46;20.10;16.10
2409;DHT22;8463;48.094;7.970;2022-07-06T06:24:12;20.10;14.80
2409;DHT22;8463;48.094;7.970;2022-07-06T06:26:37;20.10;15.70
2409;DHT22;8463;48.094;7.970;2022-07-06T06:29:03;20.40;15.10
2409;DHT22;8463;48.094;7.970;2022-07-06T06:31:29;20.50;14.80
2409;DHT22;8463;48.094;7.970;2022-07-06T06:33:54;20.70;14.40
2409;DHT22;8463;48.094;7.970;2022-07-06T06:36:20;20.90;14.30
2409;DHT22;8463;48.094;7.970;2022-07-06T06:38:46;21.00;13.00
2409;DHT22;8463;48.094;7.970;2022-07-06T06:41:14;21.10;11.80
2409;DHT22;8463;48.094;7.970;2022-07-06T06:43:40;21.20;12.00
2409;DHT22;8463;48.094;7.970;2022-07-06T06:46:05;21.20;11.80
2409;DHT22;8463;48.094;7.970;2022-07-06T06:48:31;21.40;11.20
2409;DHT22;8463;48.094;7.970;2022-07-06T06:50:57;21.10;11.20
2409;DHT22;8463;48.094;7.970;2022-07-06T06:53:23;20.70;12.20
2409;DHT22;8463;48.094;7.970;2022-07-06T06:55:49;20.80;13.40
2409;DHT22;8463;48.094;7.970;2022-07-06T06:58:14;20.90;12.30
2409;DHT22;8463;48.094;7.970;2022-07-06T07:00:40;20.60;12.40
2409;DHT22;8463;48.094;7.970;2022-07-06T07:03:06;20.60;12.50
2409;DHT22;8463;48.094;7.970;2022-07-06T07:05:31;20.60;12.90
2409;DHT22;8463;48.094;7.970;2022-07-06T07:07:57;20.90;14.20
2409;DHT22;8463;48.094;7.970;2022-07-06T07:10:25;21.30;11.40
2409;DHT22;8463;48.094;7.970;2022-07-06T07:12:51;21.00;12.20
2409;DHT22;8463;48.094;7.970;2022-07-06T07:15:17;20.90;12.60
2409;DHT22;8463;48.094;7.970;2022-07-06T07:17:42;20.80;13.60
2409;DHT22;8463;48.094;7.970;2022-07-06T07:20:09;20.50;14.60
2409;DHT22;8463;48.094;7.970;2022-07-06T07:22:35;20.50;14.90
2409;DHT22;8463;48.094;7.970;2022-07-06T07:25:00;20.50;14.50
2409;DHT22;8463;48.094;7.970;2022-07-06T07:27:26;20.50;16.00
2409;DHT22;8463;48.094;7.970;2022-07-06T07:29:52;20.40;15.60
2409;DHT22;8463;48.094;7.970;2022-07-06T07:32:19;20.30;15.50
2409;DHT22;8463;48.094;7.970;2022-07-06T07:34:45;20.20;16.30
2409;DHT22;8463;48.094;7.970;2022-07-06T07:37:11;20.30;16.50
2409;DHT22;8463;48.094;7.970;2022-07-06T07:39:36;20.40;16.60
2409;DHT22;8463;48.094;7.970;2022-07-06T07:42:02;20.40;16.30
2409;DHT22;8463;48.094;7.970;2022-07-06T07:44:28;20.40;16.10
2409;DHT22;8463;48.094;7.970;2022-07-06T07:46:54;20.40;16.10
2409;DHT22;8463;48.094;7.970;2022-07-06T07:49:20;20.50;16.60
2409;DHT22;8463;48.094;7.970;2022-07-06T07:51:47;20.50;17.00
2409;DHT22;8463;48.094;7.970;2022-07-06T07:54:13;20.60;16.20
2409;DHT22;8463;48.094;7.970;2022-07-06T07:56:39;20.70;15.80
2409;DHT22;8463;48.094;7.970;2022-07-06T07:59:08;20.80;16.10
2409;DHT22;8463;48.094;7.970;2022-07-06T08:01:34;20.80;16.10
2409;DHT22;8463;48.094;7.970;2022-07-06T08:04:00;21.00;18.20
2409;DHT22;8463;48.094;7.970;2022-07-06T08:06:26;21.00;17.10
2409;DHT22;8463;48.094;7.970;2022-07-06T08:08:51;21.00;18.60
2409;DHT22;8463;48.094;7.970;2022-07-06T08:11:17;21.00;17.70
2409;DHT22;8463;48.094;7.970;2022-07-06T08:13:43;21.00;19.00
2409;DHT22;8463;48.094;7.970;2022-07-06T08:16:09;21.00;17.40
2409;DHT22;8463;48.094;7.970;2022-07-06T08:18:36;21.10;17.50
2409;DHT22;8463;48.094;7.970;2022-07-06T08:21:02;21.20;17.10
2409;DHT22;8463;48.094;7.970;2022-07-06T08:23:28;21.20;17.70
2409;DHT22;8463;48.094;7.970;2022-07-06T08:25:53;21.40;17.10
2409;DHT22;8463;48.094;7.970;2022-07-06T08:28:20;21.50;17.60
2409;DHT22;8463;48.094;7.970;2022-07-06T08:30:46;21.60;16.90
2409;DHT22;8463;48.094;7.970;2022-07-06T08:33:13;21.60;17.70
2409;DHT22;8463;48.094;7.970;2022-07-06T08:35:39;21.90;17.00
2409;DHT22;8463;48.094;7.970;2022-07-06T08:38:04;21.80;17.30
2409;DHT22;8463;48.094;7.970;2022-07-06T08:40:33;21.90;17.00
2409;DHT22;8463;48.094;7.970;2022-07-06T08:43:00;21.80;16.90
2409;DHT22;8463;48.094;7.970;2022-07-06T08:45:26;21.80;16.70
2409;DHT22;8463;48.094;7.970;2022-07-06T08:47:54;21.70;17.50
2409;DHT22;8463;48.094;7.970;2022-07-06T08:50:20;21.90;18.50
2409;DHT22;8463;48.094;7.970;2022-07-06T08:52:48;22.00;17.20
2409;DHT22;8463;48.094;7.970;2022-07-06T08:55:15;22.10;16.90
2409;DHT22;8463;48.094;7.970;2022-07-06T08:57:41;22.00;16.60
2409;DHT22;8463;48.094;7.970;2022-07-06T09:00:10;21.90;17.20
2409;DHT22;8463;48.094;7.970;2022-07-06T09:02:36;22.20;18.00
2409;DHT22;8463;48.094;7.970;2022-07-06T09:05:03;22.20;16.70
2409;DHT22;8463;48.094;7.970;2022-07-06T09:07:29;22.50;17.60
2409;DHT22;8463;48.094;7.970;2022-07-06T09:09:55;22.40;17.40
2409;DHT22;8463;48.094;7.970;2022-07-06T09:12:26;22.30;18.00
2409;DHT22;8463;48.094;7.970;2022-07-06T09:14:55;22.40;17.10
2409;DHT22;8463;48.094;7.970;2022-07-06T09:17:25;22.40;17.60
2409;DHT22;8463;48.094;7.970;2022-07-06T09:19:51;22.50;17.30
2409;DHT22;8463;48.094;7.970;2022-07-06T09:22:31;22.70;16.80
2409;DHT22;8463;48.094;7.970;2022-07-06T09:25:13;22.70;17.50
2409;DHT22;8463;48.094;7.970;2022-07-06T09:27:44;22.70;16.60
2409;DHT22;8463;48.094;7.970;2022-07-06T09:30:16;23.00;15.40
2409;DHT22;8463;48.094;7.970;2022-07-06T09:32:47;23.40;15.10
2409;DHT22;8463;48.094;7.970;2022-07-06T09:35:30;23.20;14.60
2409;DHT22;8463;48.094;7.970;2022-07-06T09:40:25;23.30;14.50
2409;DHT22;8463;48.094;7.970;2022-07-06T09:42:51;23.20;15.20
2409;DHT22;8463;48.094;7.970;2022-07-06T09:45:21;23.30;15.60
2409;DHT22;8463;48.094;7.970;2022-07-06T09:47:47;23.40;13.30
2409;DHT22;8463;48.094;7.970;2022-07-06T09:50:15;23.50;13.30
2409;DHT22;8463;48.094;7.970;2022-07-06T09:52:53;23.90;13.20
2409;DHT22;8463;48.094;7.970;2022-07-06T09:55:21;23.90;12.10
2409;DHT22;8463;48.094;7.970;2022-07-06T09:57:53;23.90;13.80
2409;DHT22;8463;48.094;7.970;2022-07-06T10:00:20;23.80;10.50
2409;DHT22;8463;48.094;7.970;2022-07-06T10:02:47;24.00;10.80
2409;DHT22;8463;48.094;7.970;2022-07-06T10:05:16;24.00;10.90
2409;DHT22;8463;48.094;7.970;2022-07-06T10:07:47;23.80;10.80
2409;DHT22;8463;48.094;7.970;2022-07-06T10:10:15;23.90;11.60
2409;DHT22;8463;48.094;7.970;2022-07-06T10:12:44;24.20;10.20
2409;DHT22;8463;48.094;7.970;2022-07-06T10:15:10;24.30;8.40
2409;DHT22;8463;48.094;7.970;2022-07-06T10:17:38;24.20;7.70
2409;DHT22;8463;48.094;7.970;2022-07-06T10:20:06;24.50;9.20
2409;DHT22;8463;48.094;7.970;2022-07-06T10:22:34;24.80;6.80
2409;DHT22;8463;48.094;7.970;2022-07-06T10:25:01;25.00;5.80
2409;DHT22;8463;48.094;7.970;2022-07-06T10:27:28;25.20;7.90
2409;DHT22;8463;48.094;7.970;2022-07-06T10:29:54;25.10;5.50
2409;DHT22;8463;48.094;7.970;2022-07-06T10:32:20;24.80;5.00
2409;DHT22;8463;48.094;7.970;2022-07-06T10:34:47;24.60;5.80
2409;DHT22;8463;48.094;7.970;2022-07-06T10:37:27;24.60;5.10
2409;DHT22;8463;48.094;7.970;2022-07-06T10:39:53;24.60;5.10
2409;DHT22;8463;48.094;7.970;2022-07-06T10:42:49;24.90;5.40
2409;DHT22;8463;48.094;7.970;2022-07-06T10:50:46;25.00;5.50
2409;DHT22;8463;48.094;7.970;2022-07-06T10:53:13;25.20;3.80
2409;DHT22;8463;48.094;7.970;2022-07-06T10:55:46;25.30;4.30
2409;DHT22;8463;48.094;7.970;2022-07-06T10:58:14;25.40;4.80
2409;DHT22;8463;48.094;7.970;2022-07-06T11:00:54;25.60;5.30
2409;DHT22;8463;48.094;7.970;2022-07-06T11:03:45;26.10;6.10
2409;DHT22;8463;48.094;7.970;2022-07-06T11:06:15;26.40;4.80
2409;DHT22;8463;48.094;7.970;2022-07-06T11:08:42;26.40;6.50
2409;DHT22;8463;48.094;7.970;2022-07-06T11:11:37;26.70;5.00
2409;DHT22;8463;48.094;7.970;2022-07-06T11:14:04;26.70;3.00
2409;DHT22;8463;48.094;7.970;2022-07-06T11:16:34;26.50;3.10
2409;DHT22;8463;48.094;7.970;2022-07-06T11:21:50;27.00;2.30
2409;DHT22;8463;48.094;7.970;2022-07-06T11:26:47;26.70;2.20
2409;DHT22;8463;48.094;7.970;2022-07-06T11:29:14;26.40;2.00
2409;DHT22;8463;48.094;7.970;2022-07-06T11:31:42;26.10;2.20
2409;DHT22;8463;48.094;7.970;2022-07-06T11:34:11;26.20;5.10
2409;DHT22;8463;48.094;7.970;2022-07-06T11:36:37;26.70;5.00
2409;DHT22;8463;48.094;7.970;2022-07-06T11:39:04;26.90;4.00
2409;DHT22;8463;48.094;7.970;2022-07-06T11:41:31;26.70;1.10
2409;DHT22;8463;48.094;7.970;2022-07-06T11:43:57;26.70;2.50
2409;DHT22;8463;48.094;7.970;2022-07-06T11:46:24;27.10;3.30
2409;DHT22;8463;48.094;7.970;2022-07-06T11:49:02;27.30;2.50
2409;DHT22;8463;48.094;7.970;2022-07-06T11:51:29;27.20;1.30
2409;DHT22;8463;48.094;7.970;2022-07-06T11:53:58;27.10;1.10
2409;DHT22;8463;48.094;7.970;2022-07-06T11:56:29;27.00;1.00
2409;DHT22;8463;48.094;7.970;2022-07-06T11:58:57;27.20;1.10
2409;DHT22;8463;48.094;7.970;2022-07-06T12:01:25;27.30;1.00
2409;DHT22;8463;48.094;7.970;2022-07-06T12:03:58;27.50;1.00
2409;DHT22;8463;48.094;7.970;2022-07-06T12:06:26;27.70;1.00
2409;DHT22;8463;48.094;7.970;2022-07-06T12:08:57;27.90;1.00
2409;DHT22;8463;48.094;7.970;2022-07-06T12:11:27;28.00;1.00
2409;DHT22;8463;48.094;7.970;2022-07-06T12:13:55;27.70;1.00
2409;DHT22;8463;48.094;7.970;2022-07-06T12:16:27;27.60;1.00
2409;DHT22;8463;48.094;7.970;2022-07-06T12:18:53;27.40;1.00
2409;DHT22;8463;48.094;7.970;2022-07-06T12:21:20;26.80;1.00
2409;DHT22;8463;48.094;7.970;2022-07-06T12:23:51;26.50;2.10
2409;DHT22;8463;48.094;7.970;2022-07-06T12:26:19;26.50;1.00
2409;DHT22;8463;48.094;7.970;2022-07-06T12:28:47;27.10;1.60
2409;DHT22;8463;48.094;7.970;2022-07-06T12:31:41;27.60;1.00
2409;DHT22;8463;48.094;7.970;2022-07-06T12:34:17;27.60;1.00
2409;DHT22;8463;48.094;7.970;2022-07-06T12:36:50;27.90;1.00
2409;DHT22;8463;48.094;7.970;2022-07-06T12:39:19;28.20;1.00
2409;DHT22;8463;48.094;7.970;2022-07-06T12:41:56;28.30;1.00
2409;DHT22;8463;48.094;7.970;2022-07-06T12:44:25;28.30;1.00
2409;DHT22;8463;48.094;7.970;2022-07-06T12:47:05;28.50;1.00
2409;DHT22;8463;48.094;7.970;2022-07-06T12:49:32;28.60;1.00
2409;DHT22;8463;48.094;7.970;2022-07-06T12:54:26;28.40;1.00
2409;DHT22;8463;48.094;7.970;2022-07-06T12:57:11;28.40;1.00
2409;DHT22;8463;48.094;7.970;2022-07-06T12:59:56;28.40;1.00
2409;DHT22;8463;48.094;7.970;2022-07-06T13:02:23;28.50;1.00
2409;DHT22;8463;48.094;7.970;2022-07-06T13:05:03;28.70;1.00
2409;DHT22;8463;48.094;7.970;2022-07-06T13:07:30;28.70;1.00
2409;DHT22;8463;48.094;7.970;2022-07-06T13:09:57;28.70;1.00
2409;DHT22;8463;48.094;7.970;2022-07-06T13:12:24;28.90;1.00
2409;DHT22;8463;48.094;7.970;2022-07-06T13:14:50;28.90;1.00
2409;DHT22;8463;48.094;7.970;2022-07-06T13:17:17;28.90;1.00
2409;DHT22;8463;48.094;7.970;2022-07-06T13:19:43;28.70;1.00
2409;DHT22;8463;48.094;7.970;2022-07-06T13:22:08;28.70;1.00
2409;DHT22;8463;48.094;7.970;2022-07-06T13:24:34;28.50;1.00
2409;DHT22;8463;48.094;7.970;2022-07-06T13:27:00;28.60;1.00
2409;DHT22;8463;48.094;7.970;2022-07-06T13:29:26;28.80;1.00
2409;DHT22;8463;48.094;7.970;2022-07-06T13:31:52;28.80;1.00
2409;DHT22;8463;48.094;7.970;2022-07-06T13:34:18;29.00;1.00
2409;DHT22;8463;48.094;7.970;2022-07-06T13:36:43;29.40;1.00
2409;DHT22;8463;48.094;7.970;2022-07-06T13:39:09;29.60;1.00
2409;DHT22;8463;48.094;7.970;2022-07-06T13:41:36;29.50;1.00
2409;DHT22;8463;48.094;7.970;2022-07-06T13:44:02;29.20;1.00
2409;DHT22;8463;48.094;7.970;2022-07-06T13:46:29;29.20;1.00
2409;DHT22;8463;48.094;7.970;2022-07-06T13:48:56;29.20;1.00
2409;DHT22;8463;48.094;7.970;2022-07-06T13:51:26;29.10;1.00
2409;DHT22;8463;48.094;7.970;2022-07-06T13:53:54;28.60;1.00
2409;DHT22;8463;48.094;7.970;2022-07-06T13:56:20;28.30;1.40
2409;DHT22;8463;48.094;7.970;2022-07-06T13:58:46;28.50;1.00
2409;DHT22;8463;48.094;7.970;2022-07-06T14:01:12;28.80;1.00
2409;DHT22;8463;48.094;7.970;2022-07-06T14:03:38;29.10;1.00
2409;DHT22;8463;48.094;7.970;2022-07-06T14:06:05;29.30;1.00
2409;DHT22;8463;48.094;7.970;2022-07-06T14:08:33;29.30;1.00
2409;DHT22;8463;48.094;7.970;2022-07-06T14:10:59;29.10;1.00
2409;DHT22;8463;48.094;7.970;2022-07-06T14:13:26;28.90;1.00
2409;DHT22;8463;48.094;7.970;2022-07-06T14:15:52;28.70;1.00
2409;DHT22;8463;48.094;7.970;2022-07-06T14:18:18;28.60;1.00
2409;DHT22;8463;48.094;7.970;2022-07-06T14:20:45;28.70;1.00
2409;DHT22;8463;48.094;7.970;2022-07-06T14:23:11;28.90;1.00
2409;DHT22;8463;48.094;7.970;2022-07-06T14:25:38;29.00;1.00
2409;DHT22;8463;48.094;7.970;2022-07-06T14:28:04;28.80;1.00
2409;DHT22;8463;48.094;7.970;2022-07-06T14:30:29;28.80;1.00
2409;DHT22;8463;48.094;7.970;2022-07-06T14:32:56;28.10;1.00
2409;DHT22;8463;48.094;7.970;2022-07-06T14:35:21;28.00;1.00
2409;DHT22;8463;48.094;7.970;2022-07-06T14:37:47;28.40;1.00
2409;DHT22;8463;48.094;7.970;2022-07-06T14:40:13;28.70;1.00
2409;DHT22;8463;48.094;7.970;2022-07-06T14:42:39;28.80;1.00
2409;DHT22;8463;48.094;7.970;2022-07-06T14:45:05;28.90;1.00
2409;DHT22;8463;48.094;7.970;2022-07-06T14:47:31;28.80;1.00
2409;DHT22;8463;48.094;7.970;2022-07-06T14:49:56;28.40;1.00
2409;DHT22;8463;48.094;7.970;2022-07-06T14:52:22;28.30;1.00
2409;DHT22;8463;48.094;7.970;2022-07-06T14:54:47;28.40;1.00
2409;DHT22;8463;48.094;7.970;2022-07-06T14:57:13;28.20;1.00
2409;DHT22;8463;48.094;7.970;2022-07-06T14:59:39;28.60;1.10
2409;DHT22;8463;48.094;7.970;2022-07-06T15:02:04;29.00;1.00
2409;DHT22;8463;48.094;7.970;2022-07-06T15:04:30;28.90;1.00
2409;DHT22;8463;48.094;7.970;2022-07-06T15:06:56;28.50;1.00
2409;DHT22;8463;48.094;7.970;2022-07-06T15:09:21;28.60;1.00
2409;DHT22;8463;48.094;7.970;2022-07-06T15:11:47;28.90;1.00
2409;DHT22;8463;48.094;7.970;2022-07-06T15:14:13;29.20;1.00
2409;DHT22;8463;48.094;7.970;2022-07-06T15:16:41;29.00;1.00
2409;DHT22;8463;48.094;7.970;2022-07-06T15:19:07;28.80;1.00
2409;DHT22;8463;48.094;7.970;2022-07-06T15:21:33;28.70;1.00
2409;DHT22;8463;48.094;7.970;2022-07-06T15:23:59;28.60;1.00
2409;DHT22;8463;48.094;7.970;2022-07-06T15:26:24;28.80;1.00
2409;DHT22;8463;48.094;7.970;2022-07-06T15:28:51;29.00;1.00
2409;DHT22;8463;48.094;7.970;2022-07-06T15:31:16;29.00;1.00
2409;DHT22;8463;48.094;7.970;2022-07-06T15:33:42;28.50;1.00
2409;DHT22;8463;48.094;7.970;2022-07-06T15:36:08;28.00;1.00
2409;DHT22;8463;48.094;7.970;2022-07-06T15:38:33;27.40;1.00
2409;DHT22;8463;48.094;7.970;2022-07-06T15:41:02;27.10;1.00
2409;DHT22;8463;48.094;7.970;2022-07-06T15:43:29;26.90;1.00
2409;DHT22;8463;48.094;7.970;2022-07-06T15:45:58;26.80;1.00
2409;DHT22;8463;48.094;7.970;2022-07-06T15:48:25;26.60;1.00
2409;DHT22;8463;48.094;7.970;2022-07-06T15:50:51;26.40;1.00
2409;DHT22;8463;48.094;7.970;2022-07-06T15:53:17;26.40;1.00
2409;DHT22;8463;48.094;7.970;2022-07-06T15:55:44;26.20;1.00
2409;DHT22;8463;48.094;7.970;2022-07-06T15:58:10;26.10;1.00
2409;DHT22;8463;48.094;7.970;2022-07-06T16:00:35;25.90;1.00
2409;DHT22;8463;48.094;7.970;2022-07-06T16:03:02;25.80;1.00
2409;DHT22;8463;48.094;7.970;2022-07-06T16:05:27;25.60;1.50
2409;DHT22;8463;48.094;7.970;2022-07-06T16:07:53;25.50;1.50
2409;DHT22;8463;48.094;7.970;2022-07-06T16:10:19;25.50;2.00
2409;DHT22;8463;48.094;7.970;2022-07-06T16:12:44;25.60;2.30
2409;DHT22;8463;48.094;7.970;2022-07-06T16:15:10;25.50;1.70
2409;DHT22;8463;48.094;7.970;2022-07-06T16:17:37;25.70;1.60
2409;DHT22;8463;48.094;7.970;2022-07-06T16:20:03;25.70;1.00
2409;DHT22;8463;48.094;7.970;2022-07-06T16:22:29;25.70;1.00